SKVV/VVC METAR and TAF weather

Enter ICAO airport designator
Station Type Date Time Source
SKVV METAR 2020/03/30 23:00 UTC NOAA

SKVV 302300Z 00000KT 8000 FEW023 BKN090 26/22 A2986 RMK HZ


Station Type Date Time Source
SKVV Decoded METAR 2020/03/30 23:00 UTC NOAA

Villavicencio / Vanguardia, Colombia (SKVV) 04-10N 073-37W 431M
Mar 30, 2020 - 07:00 PM EDT / 2020.03.30 2300 UTC
Wind: Calm:0
Visibility: 4 mile(s):0
Sky conditions: mostly cloudy
Temperature: 78 F (26 C)
Dew Point: 71 F (22 C)
Relative Humidity: 78%
Pressure (altimeter): 29.86 in. Hg (1011 hPa)
ob: SKVV 302300Z 00000KT 8000 FEW023 BKN090 26/22 A2986 RMK HZ
cycle: 23

Station Type Date Time Source
SKVV TAF UTC NOAA

Error!

Example: see airport list